Terminal Aerodrome Forecast
Issued by NWS Green Bay, WI

Home | Current Version | Previous Version | Graphics & Text | Print | Product List | Glossary On
Versions: 1 2 3 4 5 6 7 8 9 10 11 12 13 14 15 16 17 18 19 20
000
FTUS43 KGRB 011316 AAA
TAFGRB
TAF AMD
KGRB 011316Z 0113/0212 01014G21KT 3SM -SN OVC010
     FM011400 35016G24KT 1 1/2SM -SN OVC008
      TEMPO 0115/0119 1/2SM SN OVC004
     FM012000 33017G25KT 3SM -SN BLSN BKN015 OVC025
     FM012200 32014G21KT P6SM BKN035
     FM020100 32011G18KT P6SM BKN090
     FM020400 30006KT P6SM BKN090=

USA.gov is the U.S. government's official web portal to all federal, state and local government web resources and services.